createdAt,value
2022-11-24T00:00:18.360Z,8.07
2022-11-24T00:01:22.487Z,5.63
2022-11-24T00:02:25.650Z,10.60
2022-11-24T00:03:27.826Z,6.37
2022-11-24T00:04:31.218Z,5.67
2022-11-24T00:05:38.472Z,5.87
2022-11-24T00:06:41.617Z,14.77
2022-11-24T00:07:43.756Z,12.03
2022-11-24T00:08:47.642Z,4.30
2022-11-24T00:09:49.661Z,6.67
2022-11-24T00:10:52.649Z,5.93
2022-11-24T00:11:54.700Z,6.83
2022-11-24T00:12:57.724Z,12.17
2022-11-24T00:14:00.002Z,13.57
2022-11-24T00:15:03.035Z,6.77
2022-11-24T00:16:10.524Z,8.37
2022-11-24T00:17:13.564Z,3.23
2022-11-24T00:18:15.560Z,10.47
2022-11-24T00:19:19.870Z,6.80
2022-11-24T00:20:22.114Z,6.67
2022-11-24T00:21:28.390Z,12.57
2022-11-24T00:22:31.055Z,5.97
2022-11-24T00:23:34.649Z,8.80
2022-11-24T00:24:37.706Z,6.00
2022-11-24T00:25:39.738Z,7.10
2022-11-24T00:26:43.250Z,5.07
2022-11-24T00:27:45.666Z,11.90
2022-11-24T00:28:50.285Z,7.43
2022-11-24T00:29:52.384Z,6.57
2022-11-24T00:30:55.456Z,6.03
2022-11-24T00:31:57.725Z,9.23
2022-11-24T00:33:00.743Z,6.83
2022-11-24T00:34:05.505Z,7.63
2022-11-24T00:35:08.984Z,5.37
2022-11-24T00:36:11.120Z,5.47
2022-11-24T00:37:15.519Z,10.23
2022-11-24T00:38:17.548Z,15.17
2022-11-24T00:39:20.565Z,7.57
2022-11-24T00:40:22.776Z,5.47
2022-11-24T00:41:27.072Z,7.87
2022-11-24T00:42:29.440Z,9.17
2022-11-24T00:43:32.508Z,9.80
2022-11-24T00:44:35.625Z,8.53
2022-11-24T00:45:37.873Z,16.37
2022-11-24T00:46:41.052Z,8.83
2022-11-24T00:47:43.277Z,6.03
2022-11-24T00:48:46.651Z,6.20
2022-11-24T00:49:48.720Z,5.60
2022-11-24T00:51:02.828Z,8.97
2022-11-24T00:52:05.171Z,5.53
2022-11-24T00:53:09.535Z,11.57
2022-11-24T00:54:12.712Z,10.47
2022-11-24T00:55:14.930Z,12.03
2022-11-24T00:56:17.953Z,15.13
2022-11-24T00:57:19.996Z,12.87
2022-11-24T00:58:23.686Z,7.43
2022-11-24T00:59:25.723Z,12.60
2022-11-24T01:00:28.741Z,9.30
2022-11-24T01:01:32.016Z,6.60
2022-11-24T01:02:34.162Z,13.80
2022-11-24T01:03:37.532Z,9.23
2022-11-24T01:04:39.974Z,6.97
2022-11-24T01:05:43.275Z,11.87
2022-11-24T01:06:46.280Z,15.47
2022-11-24T01:07:48.403Z,7.60
2022-11-24T01:08:53.280Z,7.83
2022-11-24T01:09:55.394Z,11.13
2022-11-24T01:11:08.873Z,7.17
2022-11-24T01:12:11.068Z,16.83
2022-11-24T01:13:14.164Z,9.60
2022-11-24T01:14:16.225Z,11.83
2022-11-24T01:15:19.477Z,8.50
2022-11-24T01:16:24.091Z,6.90
2022-11-24T01:17:27.708Z,7.07
2022-11-24T01:18:29.784Z,8.67
2022-11-24T01:19:32.964Z,9.13
2022-11-24T01:20:37.553Z,7.17
2022-11-24T01:21:41.330Z,7.77
2022-11-24T01:22:43.423Z,13.43
2022-11-24T01:23:46.938Z,8.57
2022-11-24T01:24:50.343Z,9.63
2022-11-24T01:25:53.426Z,11.97
2022-11-24T01:26:55.412Z,7.03
2022-11-24T01:27:58.455Z,11.77
2022-11-24T01:29:00.581Z,9.87
2022-11-24T01:30:03.738Z,7.10
2022-11-24T01:31:07.646Z,10.80
2022-11-24T01:32:10.731Z,11.80
2022-11-24T01:33:12.784Z,11.10
2022-11-24T01:34:15.834Z,5.83
2022-11-24T01:35:18.021Z,10.30
2022-11-24T01:36:21.732Z,8.40
2022-11-24T01:37:23.772Z,7.17
2022-11-24T01:38:27.528Z,14.50
2022-11-24T01:39:29.567Z,9.27
2022-11-24T01:40:33.915Z,9.87
2022-11-24T01:41:36.113Z,10.23
2022-11-24T01:42:44.312Z,7.60
2022-11-24T01:43:48.597Z,12.13
2022-11-24T01:45:13.755Z,10.57
2022-11-24T01:46:23.696Z,9.23
2022-11-24T01:47:34.528Z,6.67
2022-11-24T01:48:42.473Z,8.80
2022-11-24T01:49:48.217Z,8.73
2022-11-24T01:50:55.921Z,6.13
2022-11-24T01:52:04.457Z,8.13
2022-11-24T01:53:07.507Z,11.63
2022-11-24T01:54:14.360Z,11.13
2022-11-24T01:55:22.088Z,11.53
2022-11-24T01:56:27.610Z,8.87
2022-11-24T01:57:33.645Z,12.30
2022-11-24T01:58:38.055Z,7.27
2022-11-24T01:59:41.191Z,13.07
2022-11-24T02:00:45.243Z,8.07
2022-11-24T02:01:51.271Z,9.53
2022-11-24T02:02:54.002Z,9.03
2022-11-24T02:03:57.722Z,7.97
2022-11-24T02:05:03.865Z,14.03
2022-11-24T02:06:10.478Z,9.40
2022-11-24T02:07:13.879Z,13.10
2022-11-24T02:08:24.997Z,14.97
2022-11-24T02:09:32.676Z,11.37
2022-11-24T02:10:36.079Z,9.43
2022-11-24T02:11:42.682Z,8.17
2022-11-24T02:12:47.683Z,8.13
2022-11-24T02:13:52.720Z,13.30
2022-11-24T02:14:55.846Z,16.10
2022-11-24T02:15:58.981Z,10.33
2022-11-24T02:17:01.326Z,9.80
2022-11-24T02:18:04.780Z,7.63
2022-11-24T02:19:16.679Z,11.27
2022-11-24T02:20:19.989Z,11.37
2022-11-24T02:21:22.130Z,9.97
2022-11-24T02:22:36.037Z,15.70
2022-11-24T02:23:44.973Z,12.77
2022-11-24T02:24:51.212Z,12.83
2022-11-24T02:26:01.896Z,10.70
2022-11-24T02:27:06.389Z,9.87
2022-11-24T02:28:12.866Z,13.53
2022-11-24T02:29:16.778Z,12.73
2022-11-24T02:30:19.108Z,8.07
2022-11-24T02:31:24.604Z,8.83
2022-11-24T02:32:27.731Z,10.97
2022-11-24T02:33:31.509Z,12.57
2022-11-24T02:34:34.316Z,10.77
2022-11-24T02:35:38.631Z,12.13
2022-11-24T02:36:41.088Z,14.07
2022-11-24T02:37:44.130Z,12.80
2022-11-24T02:38:46.309Z,13.20
2022-11-24T02:39:49.963Z,13.00
2022-11-24T02:40:54.109Z,15.10
2022-11-24T02:42:02.509Z,14.57
2022-11-24T02:43:10.925Z,17.90
2022-11-24T02:44:16.639Z,10.37
2022-11-24T02:45:19.259Z,18.20
2022-11-24T02:46:22.691Z,9.30
2022-11-24T02:47:24.958Z,10.70
2022-11-24T02:48:28.400Z,15.00
2022-11-24T02:49:31.697Z,8.93
2022-11-24T02:50:37.579Z,11.97
2022-11-24T02:51:39.905Z,10.07
2022-11-24T02:52:44.165Z,12.17
2022-11-24T02:53:46.303Z,12.23
2022-11-24T02:54:50.448Z,9.03
2022-11-24T02:55:53.285Z,11.10
2022-11-24T02:56:56.511Z,13.53
2022-11-24T02:57:58.931Z,10.80
2022-11-24T02:59:03.493Z,13.67
2022-11-24T03:00:06.604Z,16.67
2022-11-24T03:01:10.864Z,16.53
2022-11-24T03:02:13.538Z,20.20
2022-11-24T03:03:17.393Z,15.77
2022-11-24T03:04:21.424Z,14.87
2022-11-24T03:05:26.004Z,12.60
2022-11-24T03:06:28.585Z,11.33
2022-11-24T03:07:35.390Z,13.27
2022-11-24T03:08:41.857Z,10.40
2022-11-24T03:09:45.866Z,7.10
2022-11-24T03:10:49.534Z,10.50
2022-11-24T03:11:53.025Z,11.70
2022-11-24T03:12:55.311Z,15.47
2022-11-24T03:13:59.485Z,10.60
2022-11-24T03:15:03.590Z,19.37
2022-11-24T03:16:10.405Z,19.20
2022-11-24T03:17:12.999Z,14.43
2022-11-24T03:18:16.682Z,22.20
2022-11-24T03:19:22.350Z,14.83
2022-11-24T03:20:26.465Z,20.87
2022-11-24T03:21:30.456Z,13.00
2022-11-24T03:22:34.006Z,9.47
2022-11-24T03:23:36.939Z,17.33
2022-11-24T03:24:40.165Z,11.53
2022-11-24T03:25:43.263Z,8.27
2022-11-24T03:26:46.647Z,13.90
2022-11-24T03:27:49.169Z,11.87
2022-11-24T03:28:56.115Z,21.63
2022-11-24T03:29:58.407Z,12.57
2022-11-24T03:31:03.197Z,16.80
2022-11-24T03:32:05.659Z,13.43
2022-11-24T03:33:08.734Z,8.37
2022-11-24T03:34:10.882Z,11.77
2022-11-24T03:35:14.209Z,9.70
2022-11-24T03:36:23.009Z,16.30
2022-11-24T03:37:26.382Z,13.50
2022-11-24T03:38:28.776Z,14.50
2022-11-24T03:39:32.026Z,12.43
2022-11-24T03:40:34.082Z,14.00
2022-11-24T03:41:37.181Z,13.80
2022-11-24T03:42:40.068Z,11.47
2022-11-24T03:43:44.973Z,15.33
2022-11-24T03:44:47.917Z,18.83
2022-11-24T03:45:51.574Z,10.53
2022-11-24T03:46:55.466Z,10.03
2022-11-24T03:47:58.511Z,8.57
2022-11-24T03:49:00.722Z,7.07
2022-11-24T03:50:03.820Z,14.10
2022-11-24T03:51:06.261Z,14.20
2022-11-24T03:52:10.074Z,17.83
2022-11-24T03:53:13.160Z,14.00
2022-11-24T03:54:16.185Z,11.63
2022-11-24T03:55:18.279Z,11.40
2022-11-24T03:56:24.398Z,10.90
2022-11-24T03:57:29.932Z,14.67
2022-11-24T03:58:33.029Z,12.43
2022-11-24T03:59:35.173Z,19.43
2022-11-24T04:00:38.777Z,11.17
2022-11-24T04:01:42.948Z,12.50
2022-11-24T04:02:48.188Z,10.50
2022-11-24T04:03:50.380Z,12.43
2022-11-24T04:04:53.449Z,14.87
2022-11-24T04:05:55.635Z,15.10
2022-11-24T04:06:59.448Z,12.67
2022-11-24T04:08:03.653Z,18.20
2022-11-24T04:09:07.003Z,11.53
2022-11-24T04:10:09.232Z,17.33
2022-11-24T04:11:35.515Z,17.00
2022-11-24T04:12:46.538Z,11.63
2022-11-24T04:13:48.626Z,15.33
2022-11-24T04:14:50.801Z,18.10
2022-11-24T04:15:54.085Z,20.57
2022-11-24T04:16:56.411Z,19.57
2022-11-24T04:18:00.849Z,17.53
2022-11-24T04:19:07.984Z,14.10
2022-11-24T04:20:12.775Z,15.27
2022-11-24T04:21:15.669Z,16.17
2022-11-24T04:22:18.687Z,15.87
2022-11-24T04:23:20.711Z,13.77
2022-11-24T04:24:23.799Z,13.47
2022-11-24T04:25:26.454Z,12.57
2022-11-24T04:26:29.977Z,21.63
2022-11-24T04:27:33.308Z,14.93
2022-11-24T04:28:36.627Z,12.07
2022-11-24T04:29:38.685Z,18.13
2022-11-24T04:30:44.557Z,14.57
2022-11-24T04:31:47.013Z,14.10
2022-11-24T04:32:50.348Z,15.87
2022-11-24T04:33:54.447Z,13.97
2022-11-24T04:34:57.535Z,16.70
2022-11-24T04:35:59.581Z,17.07
2022-11-24T04:37:02.615Z,15.97
2022-11-24T04:38:04.660Z,21.13
2022-11-24T04:39:24.421Z,14.97
2022-11-24T04:40:28.682Z,13.50
2022-11-24T04:41:31.753Z,20.33
2022-11-24T04:42:33.871Z,13.13
2022-11-24T04:43:40.601Z,11.73
2022-11-24T04:44:43.049Z,12.63
2022-11-24T04:45:46.048Z,18.80
2022-11-24T04:46:48.436Z,19.93
2022-11-24T04:47:51.528Z,15.97
2022-11-24T04:48:54.906Z,20.10
2022-11-24T04:49:58.054Z,15.50
2022-11-24T04:51:04.202Z,13.43
2022-11-24T04:52:07.233Z,18.70
2022-11-24T04:53:10.216Z,18.40
2022-11-24T04:54:14.348Z,17.10
2022-11-24T04:55:16.634Z,19.60
2022-11-24T04:56:19.732Z,17.87
2022-11-24T04:57:24.442Z,15.37
2022-11-24T04:58:27.467Z,11.53
2022-11-24T04:59:29.548Z,19.57
2022-11-24T05:00:32.640Z,22.73
2022-11-24T05:01:34.769Z,17.93
2022-11-24T05:02:38.352Z,14.40
2022-11-24T05:03:41.485Z,18.33
2022-11-24T05:04:45.193Z,12.77
2022-11-24T05:05:48.247Z,20.57
2022-11-24T05:06:50.619Z,20.97
2022-11-24T05:07:53.777Z,18.83
2022-11-24T05:08:55.880Z,16.07
2022-11-24T05:10:17.062Z,13.67
2022-11-24T05:11:20.683Z,25.43
2022-11-24T05:12:23.398Z,19.80
2022-11-24T05:13:26.407Z,25.40
2022-11-24T05:14:28.423Z,17.03
2022-11-24T05:15:31.844Z,20.90
2022-11-24T05:16:34.145Z,14.87
2022-11-24T05:17:39.750Z,16.47
2022-11-24T05:18:42.802Z,19.23
2022-11-24T05:19:46.208Z,15.00
2022-11-24T05:20:49.609Z,16.67
2022-11-24T05:21:52.269Z,21.43
2022-11-24T05:22:55.358Z,16.40
2022-11-24T05:23:57.390Z,14.20
2022-11-24T05:25:00.428Z,18.17
2022-11-24T05:26:03.363Z,20.47
2022-11-24T05:27:06.368Z,17.20
2022-11-24T05:28:09.906Z,18.90
2022-11-24T05:29:12.965Z,18.60
2022-11-24T05:30:15.101Z,18.80
2022-11-24T05:31:18.202Z,13.30
2022-11-24T05:32:20.285Z,15.37
2022-11-24T05:33:23.706Z,10.20
2022-11-24T05:34:26.288Z,16.47
2022-11-24T05:35:30.660Z,11.83
2022-11-24T05:36:51.405Z,16.03
2022-11-24T05:37:54.432Z,14.00
2022-11-24T05:38:56.542Z,21.50
2022-11-24T05:40:00.629Z,16.87
2022-11-24T05:41:03.635Z,12.10
2022-11-24T05:42:22.398Z,13.13
2022-11-24T05:43:25.428Z,18.40
2022-11-24T05:44:27.720Z,14.20
2022-11-24T05:45:30.892Z,22.40
2022-11-24T05:46:33.038Z,20.03
2022-11-24T05:47:36.311Z,17.70
2022-11-24T05:48:39.357Z,17.93
2022-11-24T05:49:41.384Z,18.93
2022-11-24T05:50:45.811Z,16.73
2022-11-24T05:51:47.857Z,14.23
2022-11-24T05:52:51.341Z,14.90
2022-11-24T05:53:53.386Z,18.93
2022-11-24T05:54:56.416Z,19.07
2022-11-24T05:55:58.439Z,17.33
2022-11-24T05:57:01.517Z,12.37
2022-11-24T05:58:06.252Z,17.33
2022-11-24T05:59:10.141Z,25.53
2022-11-24T06:00:14.946Z,17.30
2022-11-24T06:01:16.980Z,19.33
2022-11-24T06:02:20.223Z,16.13
2022-11-24T06:03:22.431Z,21.93
2022-11-24T06:04:25.462Z,15.00
2022-11-24T06:05:29.818Z,12.43
2022-11-24T06:06:33.198Z,15.87
2022-11-24T06:07:36.322Z,13.83
2022-11-24T06:08:39.470Z,19.43
2022-11-24T06:09:42.851Z,17.30
2022-11-24T06:10:45.853Z,16.93
2022-11-24T06:11:48.311Z,23.23
2022-11-24T06:12:51.828Z,12.23
2022-11-24T06:13:53.916Z,20.97
2022-11-24T06:14:57.102Z,17.17
2022-11-24T06:15:59.574Z,18.20
2022-11-24T06:17:03.149Z,21.90
2022-11-24T06:18:06.279Z,16.40
2022-11-24T06:19:09.599Z,22.40
2022-11-24T06:20:13.119Z,18.13
2022-11-24T06:21:15.173Z,12.37
2022-11-24T06:22:19.853Z,27.07
2022-11-24T06:23:23.635Z,14.50
2022-11-24T06:24:26.712Z,16.67
2022-11-24T06:25:29.157Z,21.37
2022-11-24T06:26:32.225Z,17.80
2022-11-24T06:27:34.256Z,15.43
2022-11-24T06:28:37.355Z,14.30
2022-11-24T06:29:39.659Z,19.50
2022-11-24T06:30:42.736Z,11.37
2022-11-24T06:31:44.885Z,18.73
2022-11-24T06:32:49.992Z,14.67
2022-11-24T06:33:52.478Z,24.97
2022-11-24T06:34:55.474Z,32.80
2022-11-24T06:36:01.530Z,11.90
2022-11-24T06:37:04.644Z,12.97
2022-11-24T06:38:08.215Z,15.10
2022-11-24T06:39:11.734Z,16.93
2022-11-24T06:40:14.787Z,23.23
2022-11-24T06:41:18.154Z,18.90
2022-11-24T06:42:21.546Z,18.13
2022-11-24T06:43:23.581Z,24.57
2022-11-24T06:44:26.817Z,20.37
2022-11-24T06:45:28.877Z,20.77
2022-11-24T06:46:32.076Z,17.33
2022-11-24T06:47:34.084Z,13.53
2022-11-24T06:48:37.226Z,19.17
2022-11-24T06:49:39.297Z,12.73
2022-11-24T06:50:42.280Z,21.67
2022-11-24T06:51:47.715Z,18.17
2022-11-24T06:52:49.748Z,21.07
2022-11-24T06:53:54.112Z,21.07
2022-11-24T06:54:57.244Z,16.57
2022-11-24T06:55:59.836Z,19.93
2022-11-24T06:57:02.886Z,17.77
2022-11-24T06:58:04.946Z,15.43
2022-11-24T06:59:08.068Z,13.90
2022-11-24T07:00:12.060Z,15.57
2022-11-24T07:01:15.403Z,16.83
2022-11-24T07:02:18.535Z,12.50
2022-11-24T07:03:20.700Z,17.10
2022-11-24T07:04:23.806Z,13.33
2022-11-24T07:05:26.049Z,12.70
2022-11-24T07:06:29.190Z,13.47
2022-11-24T07:07:31.258Z,11.83
2022-11-24T07:08:34.335Z,16.43
2022-11-24T07:09:38.723Z,19.63
2022-11-24T07:10:41.025Z,15.87
2022-11-24T07:11:44.585Z,20.27
2022-11-24T07:12:47.650Z,20.33
2022-11-24T07:13:55.170Z,16.00
2022-11-24T07:15:01.240Z,14.50
2022-11-24T07:16:12.002Z,19.53
2022-11-24T07:17:14.997Z,10.93
2022-11-24T07:18:17.023Z,12.10
2022-11-24T07:19:24.602Z,16.87
2022-11-24T07:20:27.259Z,14.47
2022-11-24T07:21:31.109Z,8.50
2022-11-24T07:22:33.166Z,13.13
2022-11-24T07:23:36.199Z,9.63
2022-11-24T07:24:39.566Z,10.40
2022-11-24T07:25:42.541Z,12.33
2022-11-24T07:26:44.605Z,12.67
2022-11-24T07:27:47.705Z,14.63
2022-11-24T07:28:50.813Z,11.27
2022-11-24T07:29:53.852Z,10.53
2022-11-24T07:30:55.909Z,11.10
2022-11-24T07:32:05.003Z,10.00
2022-11-24T07:33:07.636Z,15.77
2022-11-24T07:34:10.726Z,14.37
2022-11-24T07:35:12.860Z,15.07
2022-11-24T07:36:15.910Z,16.53
2022-11-24T07:37:18.915Z,23.70
2022-11-24T07:38:21.260Z,12.27
2022-11-24T07:39:24.316Z,10.83
2022-11-24T07:40:27.868Z,10.33
2022-11-24T07:41:30.938Z,11.23
2022-11-24T07:42:33.288Z,10.10
2022-11-24T07:43:37.554Z,10.87
2022-11-24T07:44:40.704Z,20.13
2022-11-24T07:45:42.991Z,9.93
2022-11-24T07:46:46.309Z,10.87
2022-11-24T07:47:48.344Z,6.47
2022-11-24T07:48:51.440Z,14.37
2022-11-24T07:49:54.495Z,12.10
2022-11-24T07:51:00.439Z,10.73
2022-11-24T07:52:04.455Z,7.13
2022-11-24T07:53:06.559Z,12.83
2022-11-24T07:54:09.691Z,8.30
2022-11-24T07:55:11.756Z,12.47
2022-11-24T07:56:16.112Z,9.50
2022-11-24T07:57:18.220Z,10.83
2022-11-24T07:58:21.262Z,10.47
2022-11-24T07:59:24.291Z,14.50
2022-11-24T08:00:27.110Z,9.20
2022-11-24T08:01:30.142Z,13.03
2022-11-24T08:02:32.307Z,15.00
2022-11-24T08:03:36.423Z,8.27
2022-11-24T08:04:39.487Z,8.37
2022-11-24T08:06:07.676Z,19.17
2022-11-24T08:07:04.624Z,9.77
2022-11-24T08:08:06.675Z,11.70
2022-11-24T08:09:09.778Z,11.97
2022-11-24T08:10:13.253Z,13.60
2022-11-24T08:11:17.853Z,14.43
2022-11-24T08:12:22.087Z,17.00
2022-11-24T08:13:24.107Z,6.60
2022-11-24T08:14:27.133Z,9.23
2022-11-24T08:15:29.166Z,10.73
2022-11-24T08:16:32.465Z,11.90
2022-11-24T08:17:35.565Z,12.43
2022-11-24T08:18:38.740Z,7.87
2022-11-24T08:19:41.798Z,11.60
2022-11-24T08:20:43.826Z,15.07
2022-11-24T08:21:46.868Z,8.67
2022-11-24T08:22:48.886Z,12.93
2022-11-24T08:23:55.933Z,11.07
2022-11-24T08:24:57.969Z,9.10
2022-11-24T08:26:05.585Z,9.90
2022-11-24T08:27:09.940Z,11.23
2022-11-24T08:28:12.929Z,6.40
2022-11-24T08:29:15.934Z,9.37
2022-11-24T08:30:18.233Z,7.73
2022-11-24T08:31:21.356Z,9.87
2022-11-24T08:32:24.523Z,7.77
2022-11-24T08:33:26.657Z,4.80
2022-11-24T08:34:29.751Z,16.47
2022-11-24T08:35:31.790Z,8.43
2022-11-24T08:36:35.049Z,11.43
2022-11-24T08:37:37.136Z,8.93
2022-11-24T08:38:40.717Z,10.40
2022-11-24T08:39:42.771Z,13.90
2022-11-24T08:40:45.787Z,8.13
2022-11-24T08:41:48.971Z,8.23
2022-11-24T08:42:52.909Z,8.03
2022-11-24T08:43:56.605Z,9.87
2022-11-24T08:45:04.922Z,15.17
2022-11-24T08:46:21.328Z,7.03
2022-11-24T08:47:24.417Z,13.53
2022-11-24T08:48:26.489Z,10.67
2022-11-24T08:49:29.631Z,7.80
2022-11-24T08:50:33.807Z,15.57
2022-11-24T08:51:36.883Z,9.67
2022-11-24T08:52:38.918Z,9.07
2022-11-24T08:53:43.094Z,8.97
2022-11-24T08:54:46.125Z,7.33
2022-11-24T08:55:49.138Z,9.47
2022-11-24T08:56:52.132Z,11.47
2022-11-24T08:57:56.497Z,8.63
2022-11-24T08:59:00.763Z,7.90
2022-11-24T09:00:04.913Z,8.87
2022-11-24T09:01:08.320Z,8.00
2022-11-24T09:02:13.605Z,12.40
2022-11-24T09:03:15.685Z,9.17
2022-11-24T09:04:18.783Z,13.37
2022-11-24T09:05:50.008Z,10.97
2022-11-24T09:06:44.100Z,10.03
2022-11-24T09:07:47.166Z,10.30
2022-11-24T09:08:50.446Z,12.40
2022-11-24T09:09:53.459Z,7.67
2022-11-24T09:10:59.768Z,17.83
2022-11-24T09:12:02.834Z,10.83
2022-11-24T09:13:07.325Z,8.80
2022-11-24T09:14:10.406Z,9.77
2022-11-24T09:15:12.962Z,8.43
2022-11-24T09:16:18.211Z,5.37
2022-11-24T09:17:21.269Z,6.83
2022-11-24T09:18:27.595Z,12.90
2022-11-24T09:19:33.702Z,12.03
2022-11-24T09:20:37.042Z,11.43
2022-11-24T09:21:40.094Z,12.67
2022-11-24T09:22:43.097Z,12.37
2022-11-24T09:23:48.385Z,9.80
2022-11-24T09:24:50.431Z,9.40
2022-11-24T09:25:53.443Z,9.60
2022-11-24T09:26:56.997Z,8.23
2022-11-24T09:27:59.968Z,9.30
2022-11-24T09:29:06.311Z,5.00
2022-11-24T09:30:10.103Z,9.70
2022-11-24T09:31:15.735Z,9.23
2022-11-24T09:32:18.851Z,10.80
2022-11-24T09:33:20.916Z,9.97
2022-11-24T09:34:23.922Z,8.77
2022-11-24T09:35:26.954Z,13.20
2022-11-24T09:36:31.808Z,8.53
2022-11-24T09:37:35.610Z,12.60
2022-11-24T09:38:37.791Z,6.00
2022-11-24T09:39:40.805Z,12.87
2022-11-24T09:40:42.960Z,11.53
2022-11-24T09:42:12.335Z,8.27
2022-11-24T09:43:25.739Z,6.20
2022-11-24T09:44:51.803Z,8.50
2022-11-24T09:46:05.831Z,7.70
2022-11-24T09:47:17.620Z,9.87
2022-11-24T09:48:27.167Z,14.03
2022-11-24T09:49:37.570Z,9.10
2022-11-24T09:50:40.711Z,10.80
2022-11-24T09:51:48.027Z,10.23
2022-11-24T09:52:54.308Z,9.80
2022-11-24T09:54:03.631Z,7.47
2022-11-24T09:55:23.119Z,9.37
2022-11-24T09:56:28.980Z,8.40
2022-11-24T09:57:37.640Z,7.50
2022-11-24T09:58:46.595Z,9.40
2022-11-24T09:59:51.073Z,12.10
2022-11-24T10:00:55.666Z,14.63
2022-11-24T10:01:59.033Z,15.90
2022-11-24T10:03:01.225Z,9.77
2022-11-24T10:04:06.593Z,14.40
2022-11-24T10:05:12.034Z,7.93
2022-11-24T10:06:24.268Z,13.37
2022-11-24T10:07:31.555Z,10.27
2022-11-24T10:08:50.549Z,9.50
2022-11-24T10:10:01.121Z,11.73
2022-11-24T10:11:10.376Z,10.83
2022-11-24T10:12:35.252Z,11.00
2022-11-24T10:14:05.171Z,13.47
2022-11-24T10:15:22.532Z,16.07
2022-11-24T10:16:36.693Z,10.83
2022-11-24T10:18:05.129Z,13.93
2022-11-24T10:19:18.846Z,11.73
2022-11-24T10:20:28.346Z,11.43
2022-11-24T10:21:46.059Z,11.93
2022-11-24T10:22:59.270Z,7.20
2022-11-24T10:24:22.300Z,12.30
2022-11-24T10:25:31.638Z,12.20
2022-11-24T10:26:36.622Z,10.53
2022-11-24T10:27:43.992Z,8.30
2022-11-24T10:28:53.946Z,14.77
2022-11-24T10:29:57.724Z,4.50
2022-11-24T10:31:18.779Z,10.07
2022-11-24T10:32:27.378Z,11.03
2022-11-24T10:33:31.235Z,11.53
2022-11-24T10:34:35.204Z,8.50
2022-11-24T10:35:42.292Z,12.27
2022-11-24T10:36:52.409Z,9.40
2022-11-24T10:38:03.284Z,8.27
2022-11-24T10:39:14.517Z,11.23
2022-11-24T10:40:49.207Z,11.50
2022-11-24T10:41:52.312Z,13.70
2022-11-24T10:42:54.386Z,10.87
2022-11-24T10:43:59.852Z,7.33
2022-11-24T10:45:10.343Z,8.80
2022-11-24T10:46:17.453Z,9.03
2022-11-24T10:47:22.784Z,11.10
2022-11-24T10:48:27.703Z,6.83
2022-11-24T10:49:33.723Z,11.40
2022-11-24T10:50:39.344Z,9.27
2022-11-24T10:51:50.181Z,6.73
2022-11-24T10:53:01.547Z,6.00
2022-11-24T10:54:13.544Z,7.37
2022-11-24T10:55:16.733Z,5.57
2022-11-24T10:56:18.783Z,6.47
2022-11-24T10:57:29.725Z,9.43
2022-11-24T10:58:37.661Z,13.27
2022-11-24T10:59:41.418Z,4.57
2022-11-24T11:00:43.538Z,7.27
2022-11-24T11:01:47.971Z,8.67
2022-11-24T11:02:52.513Z,6.57
2022-11-24T11:03:57.887Z,7.50
2022-11-24T11:05:28.786Z,6.63
2022-11-24T11:06:33.032Z,5.33
2022-11-24T11:07:35.098Z,9.93
2022-11-24T11:08:38.301Z,12.83
2022-11-24T11:09:40.382Z,7.00
2022-11-24T11:10:43.834Z,6.07
2022-11-24T11:11:48.248Z,6.90
2022-11-24T11:12:51.566Z,8.30
2022-11-24T11:14:03.048Z,8.17
2022-11-24T11:15:24.161Z,6.10
2022-11-24T11:16:33.620Z,9.63
2022-11-24T11:17:38.920Z,6.93
2022-11-24T11:18:49.712Z,8.00
2022-11-24T11:20:00.331Z,6.73
2022-11-24T11:21:06.188Z,8.50
2022-11-24T11:22:24.016Z,5.40
2022-11-24T11:23:30.276Z,7.73
2022-11-24T11:24:33.988Z,8.70
2022-11-24T11:25:38.170Z,4.77
2022-11-24T11:26:42.251Z,6.83
2022-11-24T11:27:46.338Z,4.73
2022-11-24T11:31:14.723Z,5.40
2022-11-24T11:34:54.304Z,9.23
2022-11-24T11:35:58.354Z,6.10
2022-11-24T11:37:01.561Z,6.23
2022-11-24T11:38:06.706Z,4.73
2022-11-24T11:39:23.044Z,5.00
2022-11-24T11:40:29.146Z,8.53
2022-11-24T11:41:34.839Z,7.87
2022-11-24T11:44:20.241Z,6.23
2022-11-24T11:45:27.392Z,8.70
2022-11-24T11:46:32.854Z,9.60
2022-11-24T11:47:42.055Z,5.87
2022-11-24T11:48:47.691Z,12.17
2022-11-24T11:49:50.856Z,7.73
2022-11-24T11:51:22.137Z,6.63
2022-11-24T11:52:59.941Z,9.70
2022-11-24T11:54:09.235Z,8.77
2022-11-24T11:55:38.420Z,9.77
2022-11-24T11:56:45.334Z,9.87
2022-11-24T11:57:57.613Z,7.27
2022-11-24T11:59:31.956Z,3.27
2022-11-24T12:00:39.816Z,6.67
2022-11-24T12:02:05.372Z,8.00
2022-11-24T12:03:30.336Z,4.27
2022-11-24T12:04:44.451Z,12.20
2022-11-24T12:05:56.344Z,8.40
2022-11-24T12:07:29.781Z,9.57
2022-11-24T12:09:11.541Z,8.60
2022-11-24T12:10:17.745Z,7.17
2022-11-24T12:11:27.023Z,10.30
2022-11-24T12:12:45.521Z,6.50
2022-11-24T12:14:15.261Z,7.30
2022-11-24T12:15:27.023Z,7.40
2022-11-24T12:16:41.855Z,6.03
2022-11-24T12:17:52.208Z,7.57
2022-11-24T12:19:08.971Z,5.87
2022-11-24T12:20:28.322Z,9.50
2022-11-24T12:21:36.770Z,6.43
2022-11-24T12:22:47.463Z,4.50
2022-11-24T12:24:00.275Z,10.90
2022-11-24T12:25:19.174Z,6.47
2022-11-24T12:26:33.777Z,7.40
2022-11-24T12:27:46.459Z,6.17
2022-11-24T12:29:00.960Z,9.03
2022-11-24T12:30:11.252Z,5.00
2022-11-24T12:31:25.054Z,12.30
2022-11-24T12:32:54.911Z,7.37
2022-11-24T12:34:25.397Z,9.03
2022-11-24T12:35:36.785Z,11.63
2022-11-24T12:36:53.669Z,3.23
2022-11-24T12:38:09.383Z,5.77
2022-11-24T12:39:25.441Z,5.40
2022-11-24T12:40:46.900Z,7.77
2022-11-24T12:42:02.788Z,5.97
2022-11-24T12:43:11.946Z,6.33
2022-11-24T12:44:31.787Z,7.13
2022-11-24T12:45:41.038Z,9.37
2022-11-24T12:46:52.638Z,6.47
2022-11-24T12:48:08.656Z,6.87
2022-11-24T12:49:21.574Z,6.03
2022-11-24T12:50:27.899Z,5.77
2022-11-24T12:51:36.164Z,7.40
2022-11-24T12:52:43.732Z,6.20
2022-11-24T12:53:47.990Z,7.33
2022-11-24T12:54:51.004Z,6.87
2022-11-24T12:55:55.721Z,10.10
2022-11-24T12:57:06.363Z,6.50
2022-11-24T12:58:15.466Z,5.50
2022-11-24T12:59:27.913Z,6.47
2022-11-24T13:00:37.824Z,5.63
2022-11-24T13:01:47.480Z,8.80
2022-11-24T13:03:14.348Z,5.47
2022-11-24T13:04:32.328Z,5.63
2022-11-24T13:05:44.421Z,8.33
2022-11-24T13:06:55.452Z,6.37
2022-11-24T13:08:00.376Z,4.17
2022-11-24T13:09:09.976Z,7.97
2022-11-24T13:12:12.415Z,6.33
2022-11-24T13:13:15.441Z,10.93
2022-11-24T13:14:23.961Z,6.60
2022-11-24T13:15:45.096Z,4.17
2022-11-24T13:18:43.734Z,4.17
2022-11-24T13:19:47.868Z,6.23
2022-11-24T13:20:50.929Z,5.87
2022-11-24T13:22:15.157Z,5.80
2022-11-24T13:23:27.475Z,9.07
2022-11-24T13:24:31.168Z,6.47
2022-11-24T13:25:36.029Z,5.73
2022-11-24T13:26:47.217Z,4.93
2022-11-24T13:27:52.997Z,5.27
2022-11-24T13:29:08.906Z,5.87
2022-11-24T13:31:00.249Z,8.53
2022-11-24T13:32:52.650Z,7.03
2022-11-24T13:33:55.729Z,5.27
2022-11-24T13:35:13.903Z,4.57
2022-11-24T13:36:33.748Z,6.43
2022-11-24T13:37:52.669Z,7.63
2022-11-24T13:38:55.843Z,8.53
2022-11-24T13:40:00.476Z,4.97
2022-11-24T13:41:21.382Z,3.30
2022-11-24T13:42:42.994Z,5.03
2022-11-24T13:44:26.307Z,5.10
2022-11-24T13:45:53.750Z,9.20
2022-11-24T13:47:03.251Z,8.03
2022-11-24T13:48:55.043Z,6.63
2022-11-24T13:50:00.152Z,6.33
2022-11-24T13:51:22.998Z,4.83
2022-11-24T13:52:46.030Z,4.37
2022-11-24T13:53:49.609Z,9.50
2022-11-24T13:54:53.729Z,4.67
2022-11-24T13:56:00.569Z,8.80
2022-11-24T13:57:34.483Z,5.60
2022-11-24T13:58:39.483Z,4.13
2022-11-24T13:59:42.114Z,6.83
2022-11-24T14:01:04.448Z,13.20
2022-11-24T14:02:24.245Z,5.80
2022-11-24T14:03:30.050Z,5.20
2022-11-24T14:04:35.683Z,7.00
2022-11-24T14:05:46.592Z,6.50
2022-11-24T14:06:56.044Z,13.03
2022-11-24T14:07:59.219Z,3.07
2022-11-24T14:09:07.522Z,8.20
2022-11-24T14:10:16.618Z,6.67
2022-11-24T14:11:18.961Z,6.80
2022-11-24T14:12:23.947Z,6.47
2022-11-24T14:13:27.771Z,3.37
2022-11-24T14:14:30.820Z,9.10
2022-11-24T14:15:35.399Z,5.00
2022-11-24T14:16:38.533Z,6.43
2022-11-24T14:17:41.707Z,7.07
2022-11-24T14:18:45.516Z,7.60
2022-11-24T14:19:50.480Z,5.53
2022-11-24T14:20:53.837Z,9.13
2022-11-24T14:21:56.952Z,5.27
2022-11-24T14:23:00.680Z,11.13
2022-11-24T14:24:12.958Z,7.20
2022-11-24T14:25:29.875Z,13.17
2022-11-24T14:26:35.386Z,4.97
2022-11-24T14:27:40.083Z,5.20
2022-11-24T14:28:42.234Z,7.97
2022-11-24T14:29:56.678Z,5.90
2022-11-24T14:31:09.895Z,4.90
2022-11-24T14:32:16.826Z,3.83
2022-11-24T14:33:21.255Z,10.07
2022-11-24T14:34:26.115Z,7.43
2022-11-24T14:35:31.546Z,4.67